Time;durP1;ratioP1;P1;durP2;ratioP2;P2;SDS_P1;SDS_P2;PMS_P1;PMS_P2;Temp;Humidity;BMP_temperature;BMP_pressure;BME280_temperature;BME280_humidity;BME280_pressure;Samples;Min_cycle;Max_cycle;Signal;HPM_P1;HPM_P2
2022/11/11 00:01:07;;;;;;;31.52;17.00;;;11.70;99.90;;;;;;4986942;28;20062;-72
2022/11/11 00:03:33;;;;;;;32.88;17.50;;;11.60;99.90;;;;;;4979142;28;20034;-72
2022/11/11 00:06:08;;;;;;;32.17;17.92;;;11.60;99.90;;;;;;4990952;28;20049;-71
2022/11/11 00:08:34;;;;;;;32.33;17.67;;;11.60;99.90;;;;;;4981420;28;20380;-72
2022/11/11 00:11:17;;;;;;;36.70;19.83;;;11.60;99.90;;;;;;4991783;28;20072;-71
2022/11/11 00:13:43;;;;;;;31.23;18.77;;;11.60;99.90;;;;;;4978060;28;20085;-72
2022/11/11 00:16:12;;;;;;;39.63;18.60;;;11.50;99.90;;;;;;4984626;28;20038;-74
2022/11/11 00:27:12;;;;;;;37.50;19.42;;;11.50;99.90;;;;;;4964592;28;20580;-72
2022/11/11 00:29:38;;;;;;;40.15;18.92;;;11.40;99.90;;;;;;4971300;28;20040;-71
2022/11/11 00:37:35;;;;;;;37.92;21.45;;;11.40;99.90;;;;;;4967484;28;20062;-71
2022/11/11 00:40:01;;;;;;;45.95;21.05;;;11.40;99.90;;;;;;4969692;28;20043;-72
2022/11/11 00:42:27;;;;;;;44.53;22.10;;;11.40;99.90;;;;;;4968237;28;20106;-72
2022/11/11 00:44:53;;;;;;;46.38;22.67;;;11.30;99.90;;;;;;4976890;28;20081;-71
2022/11/11 00:52:49;;;;;;;44.63;22.45;;;11.30;99.90;;;;;;4955405;28;20105;-71
2022/11/11 00:55:14;;;;;;;39.22;22.15;;;11.30;99.90;;;;;;4969823;28;20114;-71
2022/11/11 00:57:40;;;;;;;42.58;22.38;;;11.30;99.90;;;;;;4968030;28;20531;-72
2022/11/11 01:00:06;;;;;;;45.55;22.30;;;11.30;99.90;;;;;;4968643;28;20043;-72
2022/11/11 01:02:32;;;;;;;42.80;22.52;;;11.30;99.90;;;;;;4983778;28;20026;-73
2022/11/11 01:04:57;;;;;;;40.67;22.60;;;11.30;99.90;;;;;;4987086;28;20057;-72
2022/11/11 01:07:23;;;;;;;45.10;22.42;;;11.20;99.90;;;;;;4985476;28;20022;-71
2022/11/11 01:09:48;;;;;;;45.17;22.08;;;11.20;99.90;;;;;;4987906;28;20030;-71
2022/11/11 01:12:15;;;;;;;40.47;21.88;;;11.20;99.90;;;;;;4991261;28;20041;-71
2022/11/11 01:14:40;;;;;;;45.05;22.05;;;11.20;99.90;;;;;;4991250;28;20030;-72
2022/11/11 01:17:06;;;;;;;44.88;21.98;;;11.30;99.90;;;;;;4991495;28;20026;-72
2022/11/11 01:19:32;;;;;;;44.40;20.70;;;11.30;99.90;;;;;;4978803;28;20035;-71
2022/11/11 01:21:57;;;;;;;41.45;21.27;;;11.30;99.90;;;;;;4988797;28;20022;-71
2022/11/11 01:24:23;;;;;;;43.10;21.63;;;11.30;99.90;;;;;;4990697;28;20030;-72
2022/11/11 01:26:49;;;;;;;37.85;21.80;;;11.30;99.90;;;;;;4991085;28;21761;-72
2022/11/11 01:29:15;;;;;;;43.30;22.90;;;11.20;99.90;;;;;;4990758;28;20037;-72
2022/11/11 01:31:40;;;;;;;40.95;21.77;;;11.20;99.90;;;;;;4990681;28;20018;-71
2022/11/11 01:34:06;;;;;;;41.70;22.45;;;11.30;99.90;;;;;;4990786;28;20018;-71
2022/11/11 01:36:32;;;;;;;42.30;22.45;;;11.30;99.90;;;;;;4981601;28;20310;-71
2022/11/11 01:38:59;;;;;;;41.47;22.25;;;11.20;99.90;;;;;;4985175;28;20040;-71
2022/11/11 01:41:33;;;;;;;48.53;23.08;;;11.20;99.90;;;;;;4979092;28;20471;-71
2022/11/11 01:43:59;;;;;;;42.53;22.98;;;11.20;99.90;;;;;;4990124;28;20105;-71
2022/11/11 01:46:36;;;;;;;47.72;22.33;;;11.20;99.90;;;;;;4990827;28;20161;-71
2022/11/11 01:49:33;;;;;;;40.92;22.05;;;11.20;99.90;;;;;;4987652;28;20031;-72
2022/11/11 01:52:09;;;;;;;42.47;22.70;;;11.20;99.90;;;;;;4973649;28;20505;-71
2022/11/11 01:54:45;;;;;;;47.25;22.98;;;11.20;99.90;;;;;;4979693;28;20026;-71
2022/11/11 01:57:33;;;;;;;45.60;22.88;;;11.20;99.90;;;;;;4982523;28;20076;-72
2022/11/11 02:00:05;;;;;;;45.60;22.88;;;11.20;99.90;;;;;;4977845;28;20046;-71
2022/11/11 02:02:39;;;;;;;42.47;22.83;;;11.20;99.90;;;;;;4986829;28;20022;-72
2022/11/11 02:07:53;;;;;;;45.05;22.15;;;11.10;99.90;;;;;;4985942;28;20040;-72
2022/11/11 02:10:24;;;;;;;42.72;22.50;;;11.20;99.90;;;;;;4987986;28;20377;-71
2022/11/11 02:15:36;;;;;;;48.10;22.45;;;11.10;99.90;;;;;;4987789;28;20088;-72
2022/11/11 02:18:02;;;;;;;41.95;22.00;;;11.10;99.90;;;;;;4989299;28;20045;-72
2022/11/11 02:20:30;;;;;;;45.15;22.85;;;11.10;99.90;;;;;;4985144;28;20039;-72
2022/11/11 02:23:15;;;;;;;46.92;22.92;;;11.10;99.90;;;;;;4984881;28;20061;-71
2022/11/11 02:25:45;;;;;;;50.05;24.73;;;11.10;99.90;;;;;;4990566;28;20018;-72
2022/11/11 02:28:12;;;;;;;48.28;24.80;;;11.00;99.90;;;;;;4984876;28;20077;-72
2022/11/11 02:30:38;;;;;;;51.42;24.42;;;11.00;99.90;;;;;;4979193;28;20392;-72
2022/11/11 02:33:04;;;;;;;53.00;25.40;;;11.00;99.90;;;;;;4984743;28;20029;-72
2022/11/11 02:35:57;;;;;;;53.75;25.77;;;11.00;99.90;;;;;;4989878;28;20030;-71
2022/11/11 02:38:24;;;;;;;48.78;24.77;;;11.00;99.90;;;;;;4979839;28;20049;-72
2022/11/11 02:43:34;;;;;;;50.47;24.65;;;11.00;99.90;;;;;;4976482;28;20116;-72
2022/11/11 02:46:02;;;;;;;48.72;25.08;;;10.90;99.90;;;;;;4987964;28;20506;-72
2022/11/11 02:48:28;;;;;;;52.67;24.95;;;11.00;99.90;;;;;;4988341;28;20398;-73
2022/11/11 02:50:54;;;;;;;52.25;26.20;;;11.00;99.90;;;;;;4988747;28;20033;-71
2022/11/11 02:53:20;;;;;;;50.38;25.58;;;11.00;99.90;;;;;;4982302;28;20029;-73
2022/11/11 02:55:46;;;;;;;52.78;25.88;;;11.00;99.90;;;;;;4986372;28;20387;-72
2022/11/11 02:58:12;;;;;;;54.95;26.08;;;10.90;99.90;;;;;;4989399;28;20105;-72
2022/11/11 03:00:38;;;;;;;50.28;26.38;;;10.90;99.90;;;;;;4976222;28;20034;-71
2022/11/11 03:03:03;;;;;;;56.53;27.02;;;10.90;99.90;;;;;;4985785;28;20479;-71
2022/11/11 03:05:29;;;;;;;57.28;27.50;;;10.90;99.90;;;;;;4986164;28;20058;-72
2022/11/11 03:07:55;;;;;;;57.63;28.38;;;10.90;99.90;;;;;;4981733;28;20037;-72
2022/11/11 03:10:20;;;;;;;57.97;27.90;;;10.90;99.90;;;;;;4981965;28;20030;-72
2022/11/11 03:12:46;;;;;;;53.17;27.73;;;10.90;99.90;;;;;;4989050;28;20039;-72
2022/11/11 03:15:11;;;;;;;53.38;27.67;;;10.90;99.90;;;;;;4981331;28;20032;-72
2022/11/11 03:17:40;;;;;;;56.10;27.00;;;10.90;99.90;;;;;;4987847;28;21049;-71
2022/11/11 03:23:04;;;;;;;52.50;26.20;;;10.90;99.90;;;;;;4979555;28;20113;-72
2022/11/11 03:25:37;;;;;;;62.20;27.92;;;10.90;99.90;;;;;;4986435;28;20042;-71
2022/11/11 03:28:10;;;;;;;50.17;25.88;;;10.90;99.90;;;;;;4992013;28;20050;-73
2022/11/11 03:30:38;;;;;;;53.58;26.50;;;10.90;99.90;;;;;;4992088;28;20030;-73
2022/11/11 03:33:04;;;;;;;56.25;27.20;;;10.90;99.90;;;;;;4986799;28;20026;-71
2022/11/11 03:35:30;;;;;;;54.25;26.88;;;10.90;99.90;;;;;;4992466;28;20486;-71
2022/11/11 03:40:41;;;;;;;54.08;27.05;;;10.90;99.90;;;;;;4985700;28;20057;-72
2022/11/11 03:43:07;;;;;;;55.25;27.33;;;10.80;99.90;;;;;;4986668;28;20057;-71
2022/11/11 03:45:32;;;;;;;51.97;26.02;;;10.80;99.90;;;;;;4981764;28;20039;-72
2022/11/11 03:47:58;;;;;;;55.95;26.55;;;10.80;99.90;;;;;;4989544;28;20031;-73
2022/11/11 03:50:24;;;;;;;56.00;25.70;;;10.80;99.90;;;;;;4977745;28;20395;-72
2022/11/11 03:52:49;;;;;;;51.85;26.58;;;10.80;99.90;;;;;;4989741;28;20022;-72
2022/11/11 03:55:15;;;;;;;52.35;25.80;;;10.80;99.90;;;;;;4992235;28;20023;-71
2022/11/11 03:57:44;;;;;;;50.90;26.00;;;10.70;99.90;;;;;;4990541;28;20399;-71
2022/11/11 04:00:10;;;;;;;52.60;27.05;;;10.80;99.90;;;;;;4987466;28;20023;-71
2022/11/11 04:10:51;;;;;;;55.60;27.55;;;10.70;99.90;;;;;;4983915;28;20122;-73
2022/11/11 04:16:07;;;;;;;54.38;26.85;;;10.70;99.90;;;;;;4987601;28;20053;-72
2022/11/11 04:25:47;;;;;;;54.85;28.25;;;10.70;99.90;;;;;;4992026;28;20418;-71
2022/11/11 04:26:48;;;;;;;55.40;27.42;;;10.70;99.90;;;;;;4977895;28;20038;-71
2022/11/11 04:29:29;;;;;;;55.72;27.13;;;10.70;99.90;;;;;;4990782;28;20105;-71
2022/11/11 04:34:55;;;;;;;55.25;28.73;;;10.70;99.90;;;;;;4981974;28;20049;-72
2022/11/11 04:37:22;;;;;;;58.33;28.75;;;10.70;99.90;;;;;;4987210;28;20047;-72
2022/11/11 04:42:35;;;;;;;54.15;28.52;;;10.60;99.90;;;;;;4978080;28;20058;-72
2022/11/11 04:48:12;;;;;;;59.53;29.50;;;10.60;99.90;;;;;;4991676;28;20503;-72
2022/11/11 04:50:41;;;;;;;54.22;29.58;;;10.60;99.90;;;;;;4989071;28;20054;-72
2022/11/11 04:53:12;;;;;;;51.72;28.48;;;10.60;99.90;;;;;;4977597;28;20018;-72
2022/11/11 04:58:24;;;;;;;54.70;29.38;;;10.50;99.90;;;;;;4991735;28;20668;-71
2022/11/11 05:00:50;;;;;;;60.83;30.00;;;10.50;99.90;;;;;;4991082;28;20035;-72
2022/11/11 05:03:19;;;;;;;61.88;29.33;;;10.50;99.90;;;;;;4991023;28;20026;-71
2022/11/11 05:08:54;;;;;;;51.28;28.08;;;10.50;99.90;;;;;;4971832;28;20038;-72
2022/11/11 05:11:22;;;;;;;55.33;29.27;;;10.50;99.90;;;;;;4971886;28;20033;-72
2022/11/11 05:22:21;;;;;;;53.65;27.15;;;10.30;99.90;;;;;;4931222;29;20121;-71
2022/11/11 05:27:31;;;;;;;55.05;28.40;;;10.30;99.90;;;;;;4930489;29;20404;-72
2022/11/11 05:29:57;;;;;;;51.95;27.85;;;10.30;99.90;;;;;;4930102;29;20044;-72
2022/11/11 05:32:23;;;;;;;56.00;28.40;;;10.30;99.90;;;;;;4930994;29;20472;-71
2022/11/11 05:34:49;;;;;;;53.67;28.42;;;10.30;99.90;;;;;;4930992;29;20059;-72
2022/11/11 05:37:15;;;;;;;63.75;29.08;;;10.30;99.90;;;;;;4916723;28;20509;-72
2022/11/11 05:39:41;;;;;;;57.45;28.58;;;10.30;99.90;;;;;;4943107;29;20131;-71
2022/11/11 05:42:07;;;;;;;56.38;29.13;;;10.30;99.90;;;;;;4929591;29;20130;-71
2022/11/11 05:44:32;;;;;;;59.90;29.17;;;10.30;99.90;;;;;;4929748;29;20079;-71
2022/11/11 05:46:58;;;;;;;51.83;28.30;;;10.30;99.90;;;;;;4940938;29;20027;-72
2022/11/11 05:49:24;;;;;;;62.13;30.38;;;10.30;99.90;;;;;;4935370;29;20055;-72
2022/11/11 05:51:50;;;;;;;56.47;29.58;;;10.30;99.90;;;;;;4949282;29;20035;-71
2022/11/11 05:54:16;;;;;;;56.92;29.33;;;10.30;99.90;;;;;;4947787;29;20036;-71
2022/11/11 05:56:42;;;;;;;57.63;29.85;;;10.30;99.90;;;;;;4968069;28;20038;-71
2022/11/11 05:59:08;;;;;;;56.17;29.55;;;10.30;99.90;;;;;;4989932;28;20034;-71
2022/11/11 06:01:34;;;;;;;60.95;29.13;;;10.30;99.90;;;;;;4989783;28;20521;-72
2022/11/11 06:04:00;;;;;;;59.67;30.30;;;10.30;99.90;;;;;;4990538;28;20398;-71
2022/11/11 06:06:26;;;;;;;64.07;30.85;;;10.30;99.90;;;;;;4990214;28;20015;-72
2022/11/11 06:08:51;;;;;;;60.47;30.38;;;10.30;99.90;;;;;;4990354;28;20162;-71
2022/11/11 06:11:17;;;;;;;60.65;30.42;;;10.30;99.90;;;;;;4989237;28;20031;-71
2022/11/11 06:13:43;;;;;;;62.47;31.10;;;10.30;99.90;;;;;;4989421;28;20034;-71
2022/11/11 06:16:08;;;;;;;60.47;30.75;;;10.40;99.90;;;;;;4989663;28;20033;-72
2022/11/11 06:18:34;;;;;;;63.88;31.25;;;10.40;99.90;;;;;;4990309;28;20027;-73
2022/11/11 06:21:00;;;;;;;59.75;30.10;;;10.40;99.90;;;;;;4990582;28;20022;-72
2022/11/11 06:23:27;;;;;;;61.97;31.60;;;10.40;99.90;;;;;;4989315;28;20081;-71
2022/11/11 06:28:56;;;;;;;61.42;30.80;;;10.40;99.90;;;;;;4984326;28;20112;-71
2022/11/11 06:31:25;;;;;;;59.17;30.03;;;10.30;99.90;;;;;;4986750;28;20308;-71
2022/11/11 06:33:51;;;;;;;53.83;30.83;;;10.40;99.90;;;;;;4988569;28;20038;-72
2022/11/11 06:36:19;;;;;;;53.67;29.20;;;10.30;99.90;;;;;;4985575;28;20395;-72
2022/11/11 06:38:45;;;;;;;57.20;30.75;;;10.30;99.90;;;;;;4988123;28;20038;-72
2022/11/11 06:41:11;;;;;;;58.78;30.80;;;10.30;99.90;;;;;;4988471;28;20412;-72
2022/11/11 06:43:38;;;;;;;59.13;29.20;;;10.30;99.90;;;;;;4988747;28;20503;-74
2022/11/11 06:46:04;;;;;;;60.63;30.83;;;10.30;99.90;;;;;;4986534;28;20499;-72
2022/11/11 06:48:30;;;;;;;51.95;29.35;;;10.30;99.90;;;;;;4987871;28;20049;-71
2022/11/11 06:51:04;;;;;;;53.92;28.45;;;10.30;99.90;;;;;;4987442;28;20426;-71
2022/11/11 06:53:30;;;;;;;59.50;29.35;;;10.30;99.90;;;;;;4991612;28;20034;-72
2022/11/11 06:55:57;;;;;;;62.00;28.20;;;10.20;99.90;;;;;;4992677;28;20081;-71
2022/11/11 06:58:23;;;;;;;55.10;28.50;;;10.20;99.90;;;;;;4991602;28;20026;-73
2022/11/11 07:00:49;;;;;;;55.55;28.55;;;10.20;99.90;;;;;;4993746;28;20430;-72
2022/11/11 07:03:17;;;;;;;52.60;27.27;;;10.20;99.90;;;;;;4993563;28;20030;-73
2022/11/11 07:05:43;;;;;;;52.38;27.25;;;10.20;99.90;;;;;;4989568;28;20022;-71
2022/11/11 07:08:12;;;;;;;50.95;27.67;;;10.20;99.90;;;;;;4986417;28;20046;-72
2022/11/11 07:10:42;;;;;;;52.28;26.70;;;10.20;99.90;;;;;;4987747;28;20096;-72
2022/11/11 07:13:08;;;;;;;48.53;26.08;;;10.10;99.90;;;;;;4989412;28;20577;-71
2022/11/11 07:15:34;;;;;;;51.42;26.13;;;10.10;99.90;;;;;;4989403;28;20025;-74
2022/11/11 07:18:00;;;;;;;50.70;26.15;;;10.10;99.90;;;;;;4988749;28;20034;-73
2022/11/11 07:20:25;;;;;;;54.25;26.70;;;10.10;99.90;;;;;;4989032;28;20077;-72
2022/11/11 07:22:51;;;;;;;51.10;27.15;;;10.10;99.90;;;;;;4987364;28;20027;-71
2022/11/11 07:25:17;;;;;;;56.33;26.83;;;10.10;99.90;;;;;;4991744;28;20053;-71
2022/11/11 07:27:42;;;;;;;51.35;26.98;;;10.10;99.90;;;;;;4993119;28;20061;-73
2022/11/11 07:30:09;;;;;;;46.83;27.63;;;10.10;99.90;;;;;;4990912;28;20065;-71
2022/11/11 07:32:35;;;;;;;54.70;27.45;;;10.10;99.90;;;;;;4991343;28;20034;-73
2022/11/11 07:35:01;;;;;;;55.63;28.10;;;10.10;99.90;;;;;;4990429;28;20019;-72
2022/11/11 07:37:29;;;;;;;52.17;27.63;;;10.10;99.90;;;;;;4990685;28;20031;-70
2022/11/11 07:39:54;;;;;;;54.42;28.73;;;10.10;99.90;;;;;;4994192;28;20042;-71
2022/11/11 07:42:20;;;;;;;54.92;29.30;;;10.10;99.90;;;;;;4991756;28;20042;-70
2022/11/11 07:44:45;;;;;;;58.63;30.27;;;10.10;99.90;;;;;;4991690;28;20313;-71
2022/11/11 07:47:11;;;;;;;51.75;28.85;;;10.10;99.90;;;;;;4990922;28;20026;-70
2022/11/11 07:49:36;;;;;;;55.38;29.65;;;10.10;99.90;;;;;;5005682;28;20018;-71
2022/11/11 07:52:02;;;;;;;59.25;30.23;;;10.10;99.90;;;;;;4991395;28;20048;-71
2022/11/11 07:54:28;;;;;;;60.72;32.38;;;10.10;99.90;;;;;;4990859;28;20110;-70
2022/11/11 07:56:53;;;;;;;62.17;32.05;;;10.10;99.90;;;;;;4991068;28;20050;-70
2022/11/11 07:59:19;;;;;;;56.42;31.45;;;10.10;99.90;;;;;;4990983;28;20030;-71
2022/11/11 08:01:44;;;;;;;61.85;32.22;;;10.20;99.90;;;;;;4989542;28;20057;-71
2022/11/11 08:04:10;;;;;;;63.10;31.42;;;10.20;99.90;;;;;;4986479;28;20035;-71
2022/11/11 08:06:35;;;;;;;59.67;31.23;;;10.20;99.90;;;;;;4990885;28;20022;-71
2022/11/11 08:09:01;;;;;;;58.60;30.60;;;10.20;99.90;;;;;;4991892;28;20027;-71
2022/11/11 08:14:10;;;;;;;60.70;31.70;;;10.30;99.90;;;;;;4992446;28;20477;-70
2022/11/11 08:16:36;;;;;;;60.97;33.08;;;10.20;99.90;;;;;;4990637;28;20045;-70
2022/11/11 08:19:02;;;;;;;60.85;31.90;;;10.20;99.90;;;;;;4991774;28;20485;-70
2022/11/11 08:21:27;;;;;;;60.33;31.73;;;10.30;99.90;;;;;;4991911;28;20395;-70
2022/11/11 08:23:53;;;;;;;66.28;32.92;;;10.30;99.90;;;;;;4992564;28;20038;-71
2022/11/11 08:26:20;;;;;;;66.72;33.78;;;10.30;99.90;;;;;;4985628;28;20034;-70
2022/11/11 08:28:47;;;;;;;59.30;32.25;;;10.40;99.90;;;;;;4992217;28;20041;-70
2022/11/11 08:31:12;;;;;;;64.95;32.95;;;10.40;99.90;;;;;;4991616;28;20027;-70
2022/11/11 08:33:38;;;;;;;65.68;32.85;;;10.40;99.90;;;;;;4992543;28;20030;-70
2022/11/11 08:36:05;;;;;;;60.00;33.08;;;10.50;99.90;;;;;;4991020;28;20479;-70
2022/11/11 08:38:31;;;;;;;63.90;33.20;;;10.50;99.90;;;;;;4992221;28;20041;-70
2022/11/11 08:41:03;;;;;;;65.32;33.72;;;10.50;99.90;;;;;;4991053;28;20470;-71
2022/11/11 08:43:32;;;;;;;68.82;34.30;;;10.50;99.90;;;;;;4991424;28;20054;-71
2022/11/11 08:45:59;;;;;;;67.63;34.25;;;10.50;99.90;;;;;;4991351;28;20035;-71
2022/11/11 08:48:25;;;;;;;64.53;34.08;;;10.60;99.90;;;;;;4991700;28;20030;-70
2022/11/11 08:50:52;;;;;;;67.78;33.97;;;10.60;99.90;;;;;;4991552;28;20534;-71
2022/11/11 08:53:18;;;;;;;65.47;34.00;;;10.60;99.90;;;;;;4991414;28;20093;-71
2022/11/11 08:55:44;;;;;;;67.10;35.35;;;10.60;99.90;;;;;;4990718;28;20038;-71
2022/11/11 08:58:10;;;;;;;65.75;34.70;;;10.60;99.90;;;;;;4989845;28;20036;-71
2022/11/11 09:00:36;;;;;;;69.95;34.50;;;10.60;99.90;;;;;;4989423;28;20106;-71
2022/11/11 09:03:04;;;;;;;70.47;35.05;;;10.70;99.90;;;;;;4988594;28;20034;-71
2022/11/11 09:05:30;;;;;;;66.00;33.58;;;10.70;99.90;;;;;;4990880;28;20515;-69
2022/11/11 09:08:00;;;;;;;66.65;33.05;;;10.70;99.90;;;;;;4990608;28;20084;-71
2022/11/11 09:10:25;;;;;;;62.97;33.22;;;10.70;99.90;;;;;;4990858;28;20113;-71
2022/11/11 09:12:56;;;;;;;69.55;34.28;;;10.80;99.90;;;;;;4990830;28;20105;-72
2022/11/11 09:15:21;;;;;;;64.72;34.17;;;10.80;99.90;;;;;;4991304;28;20038;-70
2022/11/11 09:17:47;;;;;;;58.55;31.50;;;10.80;99.90;;;;;;4991322;28;20089;-71
2022/11/11 09:20:13;;;;;;;70.55;33.42;;;10.90;99.90;;;;;;4990800;28;20033;-71
2022/11/11 09:22:46;;;;;;;60.35;33.15;;;10.90;99.90;;;;;;4991148;28;20022;-70
2022/11/11 09:25:12;;;;;;;61.72;32.60;;;10.90;99.90;;;;;;4989612;28;20088;-70
2022/11/11 09:27:38;;;;;;;57.72;32.20;;;10.90;99.90;;;;;;4990439;28;20446;-71
2022/11/11 09:30:05;;;;;;;56.80;31.88;;;10.90;99.90;;;;;;4990954;28;20027;-71
2022/11/11 09:32:31;;;;;;;59.20;32.05;;;11.00;99.90;;;;;;4990763;28;20014;-71
2022/11/11 09:34:57;;;;;;;57.65;31.63;;;11.00;99.90;;;;;;4980973;28;20037;-70
2022/11/11 09:37:23;;;;;;;58.75;30.75;;;11.10;99.90;;;;;;4984623;28;20031;-70
2022/11/11 09:39:49;;;;;;;56.08;29.95;;;11.10;99.90;;;;;;4979002;28;20056;-70
2022/11/11 09:42:36;;;;;;;56.30;30.45;;;11.10;99.90;;;;;;4990404;28;20491;-71
2022/11/11 09:45:31;;;;;;;48.83;28.15;;;11.10;99.90;;;;;;5006055;28;20038;-71
2022/11/11 09:48:01;;;;;;;50.92;28.20;;;11.10;99.90;;;;;;4985259;28;20372;-70
2022/11/11 09:50:32;;;;;;;50.20;29.23;;;11.10;99.90;;;;;;4982778;28;20057;-71
2022/11/11 09:53:10;;;;;;;51.08;28.45;;;11.20;99.90;;;;;;4976572;28;20061;-71
2022/11/11 09:55:40;;;;;;;52.63;29.55;;;11.20;99.90;;;;;;4990866;28;20118;-70
2022/11/11 09:58:25;;;;;;;51.40;28.00;;;11.20;99.90;;;;;;4976517;28;20022;-71
2022/11/11 10:01:01;;;;;;;51.50;29.20;;;11.20;99.90;;;;;;4990095;28;20031;-73
2022/11/11 10:03:30;;;;;;;50.70;29.05;;;11.20;99.90;;;;;;4976417;28;20286;-70
2022/11/11 10:06:26;;;;;;;45.95;27.83;;;11.20;99.90;;;;;;4990136;28;20022;-70
2022/11/11 10:09:01;;;;;;;43.50;26.88;;;11.20;99.90;;;;;;4971089;28;20337;-71
2022/11/11 10:11:45;;;;;;;;;;;11.20;99.90;;;;;;4987160;28;20030;-70
2022/11/11 10:14:11;;;;;;;42.67;26.02;;;11.20;99.90;;;;;;4990325;28;19910;-71
2022/11/11 10:16:45;;;;;;;45.75;27.10;;;11.20;99.90;;;;;;4988826;28;20092;-70
2022/11/11 10:19:25;;;;;;;44.47;26.63;;;11.20;99.90;;;;;;4990993;28;20025;-71
2022/11/11 10:21:56;;;;;;;49.03;27.65;;;11.20;99.90;;;;;;4991422;28;20277;-70
2022/11/11 10:24:40;;;;;;;44.53;26.63;;;11.20;99.90;;;;;;4990761;28;20058;-70
2022/11/11 10:27:21;;;;;;;45.93;26.30;;;11.30;99.90;;;;;;4991135;28;20168;-71
2022/11/11 10:29:48;;;;;;;41.15;24.95;;;11.30;99.90;;;;;;4990316;28;20026;-70
2022/11/11 10:32:26;;;;;;;44.03;25.55;;;11.30;99.90;;;;;;4990775;28;20032;-71
2022/11/11 10:34:52;;;;;;;39.15;23.77;;;11.40;99.90;;;;;;4989988;28;20076;-69
2022/11/11 10:37:23;;;;;;;37.92;24.27;;;11.40;99.90;;;;;;4987970;28;20053;-70
2022/11/11 10:39:59;;;;;;;37.35;23.42;;;11.50;99.90;;;;;;4978958;28;20054;-70
2022/11/11 10:42:24;;;;;;;38.33;24.25;;;11.50;99.90;;;;;;4988633;28;20046;-71
2022/11/11 10:44:57;;;;;;;41.63;23.85;;;11.50;99.90;;;;;;4989397;28;20038;-71
2022/11/11 10:47:46;;;;;;;40.58;23.95;;;11.50;99.90;;;;;;4989174;28;20042;-70
2022/11/11 10:50:30;;;;;;;38.53;23.33;;;11.40;99.90;;;;;;4989274;28;20026;-71
2022/11/11 10:53:07;;;;;;;38.20;22.40;;;11.40;99.90;;;;;;4987977;28;20042;-70
2022/11/11 10:56:15;;;;;;;42.78;22.38;;;11.40;99.90;;;;;;4988437;28;20057;-71
2022/11/11 10:58:47;;;;;;;35.58;21.83;;;11.40;99.90;;;;;;4985714;28;20038;-70
2022/11/11 11:01:18;;;;;;;41.60;21.08;;;11.40;99.90;;;;;;4987224;28;20110;-71
2022/11/11 11:03:49;;;;;;;34.25;19.58;;;11.50;99.90;;;;;;4987777;28;20418;-70
2022/11/11 11:06:32;;;;;;;33.70;20.73;;;11.50;99.90;;;;;;4988014;28;20034;-73
2022/11/11 11:09:20;;;;;;;35.85;20.40;;;11.50;99.90;;;;;;4986396;28;20031;-71
2022/11/11 11:11:54;;;;;;;36.75;21.38;;;11.50;99.90;;;;;;4985151;28;20035;-71
2022/11/11 11:14:27;;;;;;;40.85;22.60;;;11.60;99.90;;;;;;4988777;28;20517;-71
2022/11/11 11:16:57;;;;;;;33.67;21.42;;;11.60;99.90;;;;;;4988399;28;20037;-71
2022/11/11 11:19:27;;;;;;;34.55;19.05;;;11.60;99.90;;;;;;4989162;28;20038;-75
2022/11/11 11:21:57;;;;;;;29.67;17.50;;;11.70;99.90;;;;;;4990494;28;20030;-70
2022/11/11 11:24:31;;;;;;;34.03;19.10;;;11.70;99.90;;;;;;4989693;28;20451;-70
2022/11/11 11:26:59;;;;;;;33.22;19.25;;;11.80;99.90;;;;;;4987830;28;20023;-69
2022/11/11 11:29:31;;;;;;;34.20;19.50;;;11.80;99.90;;;;;;4989568;28;20033;-72
2022/11/11 11:32:23;;;;;;;31.70;18.08;;;11.90;99.90;;;;;;4989468;28;20494;-70
2022/11/11 11:34:50;;;;;;;31.15;17.73;;;11.90;99.90;;;;;;4978639;28;20034;-70
2022/11/11 11:37:18;;;;;;;34.03;18.00;;;11.90;99.90;;;;;;4990732;28;20062;-69
2022/11/11 11:39:44;;;;;;;599.67;48.53;;;11.90;99.90;;;;;;4982636;28;20038;-71
2022/11/11 11:42:33;;;;;;;37.17;18.10;;;12.00;99.90;;;;;;4991957;28;20049;-71
2022/11/11 11:45:23;;;;;;;36.47;17.98;;;12.00;99.90;;;;;;4992645;28;20019;-71
2022/11/11 11:48:15;;;;;;;32.35;18.17;;;12.00;99.90;;;;;;4991876;28;20425;-70
2022/11/11 11:51:01;;;;;;;30.35;18.23;;;12.10;99.90;;;;;;4991927;28;20030;-74
2022/11/11 11:54:14;;;;;;;53.70;17.90;;;12.10;99.90;;;;;;4981385;28;20493;-71
2022/11/11 11:56:53;;;;;;;30.55;16.73;;;12.20;99.90;;;;;;4991805;28;20111;-71
2022/11/11 11:59:45;;;;;;;45.95;17.63;;;12.20;99.90;;;;;;4991025;28;20027;-71
2022/11/11 12:02:38;;;;;;;26.63;16.02;;;12.20;99.90;;;;;;4990926;28;20113;-70
2022/11/11 12:05:10;;;;;;;28.23;15.82;;;12.30;99.90;;;;;;4991913;28;20054;-70
2022/11/11 12:07:38;;;;;;;35.25;17.20;;;12.30;99.90;;;;;;4990633;28;20386;-72
2022/11/11 12:10:26;;;;;;;26.83;16.42;;;12.40;99.90;;;;;;4991553;28;20026;-70
2022/11/11 12:12:56;;;;;;;28.90;16.10;;;12.50;99.90;;;;;;4985275;28;20058;-72
2022/11/11 12:15:39;;;;;;;29.23;16.63;;;12.50;99.90;;;;;;4993013;28;20026;-69
2022/11/11 12:18:22;;;;;;;27.63;16.00;;;12.50;99.90;;;;;;4992202;28;20031;-70
2022/11/11 12:21:02;;;;;;;28.48;17.00;;;12.50;99.90;;;;;;4986699;28;20101;-73
2022/11/11 12:23:40;;;;;;;30.38;15.25;;;12.60;99.90;;;;;;4993311;28;20019;-69
2022/11/11 12:26:24;;;;;;;25.73;15.45;;;12.70;99.90;;;;;;4995153;28;20018;-70
2022/11/11 12:29:09;;;;;;;28.55;14.73;;;12.80;99.90;;;;;;4989671;28;20027;-70
2022/11/11 12:31:35;;;;;;;27.00;14.30;;;12.80;99.90;;;;;;4996231;28;20256;-70
2022/11/11 12:34:33;;;;;;;27.65;14.73;;;12.80;99.90;;;;;;4991960;28;20502;-71
2022/11/11 12:37:22;;;;;;;22.58;13.80;;;12.90;99.90;;;;;;4986710;28;20398;-70
2022/11/11 12:40:17;;;;;;;23.92;13.32;;;13.00;99.90;;;;;;4991621;28;20398;-71
2022/11/11 12:43:22;;;;;;;22.67;14.03;;;13.10;99.90;;;;;;4994681;28;20081;-71
2022/11/11 12:46:04;;;;;;;23.60;13.90;;;13.10;99.90;;;;;;4990444;28;20272;-70
2022/11/11 12:48:52;;;;;;;24.45;13.13;;;13.20;99.90;;;;;;4993444;28;20482;-71
2022/11/11 12:51:51;;;;;;;23.45;14.18;;;13.30;99.90;;;;;;4994276;28;20046;-70
2022/11/11 12:54:44;;;;;;;23.38;13.93;;;13.40;99.90;;;;;;4994150;28;20018;-71
2022/11/11 12:57:33;;;;;;;23.45;13.48;;;13.40;99.90;;;;;;4996098;28;20022;-70
2022/11/11 13:00:07;;;;;;;24.85;13.18;;;13.50;99.90;;;;;;5007931;28;20096;-70
2022/11/11 13:02:55;;;;;;;29.33;13.30;;;13.60;99.90;;;;;;4998026;28;20390;-72
2022/11/11 13:05:32;;;;;;;19.80;12.80;;;13.70;99.90;;;;;;4993911;28;20034;-71
2022/11/11 13:08:27;;;;;;;20.33;12.05;;;13.70;99.90;;;;;;4998576;28;20041;-72
2022/11/11 13:11:31;;;;;;;26.95;12.88;;;13.80;99.90;;;;;;4988534;28;20056;-70
2022/11/11 13:14:25;;;;;;;20.23;11.43;;;13.80;99.90;;;;;;4981566;28;20046;-70
2022/11/11 13:16:57;;;;;;;22.80;10.82;;;13.80;99.90;;;;;;4997262;28;20403;-70
2022/11/11 13:19:27;;;;;;;20.85;10.95;;;13.90;99.90;;;;;;4995492;28;20026;-70
2022/11/11 13:21:58;;;;;;;21.80;10.75;;;14.00;99.90;;;;;;4995596;28;20050;-70
2022/11/11 13:24:24;;;;;;;20.95;10.32;;;14.00;99.90;;;;;;4998629;28;20019;-70
2022/11/11 13:27:06;;;;;;;21.75;9.75;;;14.00;99.90;;;;;;4996373;28;20022;-72
2022/11/11 13:29:35;;;;;;;20.60;10.10;;;14.10;99.90;;;;;;4998677;28;20032;-69
2022/11/11 13:32:10;;;;;;;21.00;9.50;;;14.10;99.90;;;;;;4997671;28;20037;-70
2022/11/11 13:34:38;;;;;;;20.63;9.60;;;14.20;99.90;;;;;;4985408;28;20054;-70
2022/11/11 13:37:09;;;;;;;30.77;10.23;;;14.20;99.90;;;;;;4997878;28;20092;-69
2022/11/11 13:39:44;;;;;;;18.83;9.18;;;14.20;99.90;;;;;;4999243;28;20033;-70
2022/11/11 13:42:14;;;;;;;18.48;9.00;;;14.20;99.90;;;;;;4995447;28;20429;-70
2022/11/11 13:44:52;;;;;;;20.00;8.88;;;14.20;99.90;;;;;;5012935;28;20053;-75
2022/11/11 13:47:28;;;;;;;15.93;8.32;;;14.20;99.90;;;;;;5002427;28;20018;-74
2022/11/11 13:50:06;;;;;;;20.63;8.80;;;14.10;99.90;;;;;;5004613;28;20073;-73
2022/11/11 13:52:36;;;;;;;17.45;8.48;;;14.20;99.90;;;;;;5015424;28;20038;-74
2022/11/11 13:55:06;;;;;;;15.20;8.25;;;14.10;99.90;;;;;;5016151;28;20023;-75
2022/11/11 13:57:34;;;;;;;80.65;10.18;;;14.10;99.90;;;;;;5015735;28;20026;-75
2022/11/11 14:00:05;;;;;;;25.17;8.32;;;14.10;99.90;;;;;;4999212;28;20382;-74
2022/11/11 14:02:33;;;;;;;17.30;8.43;;;14.10;99.90;;;;;;5012053;28;20011;-75
2022/11/11 14:05:01;;;;;;;13.80;7.93;;;14.10;99.90;;;;;;5015711;28;20077;-75
2022/11/11 14:07:53;;;;;;;14.77;7.53;;;14.00;99.90;;;;;;5015061;28;20057;-74
2022/11/11 14:10:18;;;;;;;18.10;8.27;;;14.00;99.90;;;;;;5012483;28;20056;-75